Time;durP1;ratioP1;P1;durP2;ratioP2;P2;SDS_P1;SDS_P2;PMS_P1;PMS_P2;Temp;Humidity;BMP_temperature;BMP_pressure;BME280_temperature;BME280_humidity;BME280_pressure;Samples;Min_cycle;Max_cycle;Signal;HPM_P1;HPM_P2
2023/11/05 00:02:10;;;;;;;;;;;10.30;77.10;;;;;;5108231;28;19916;-69
2023/11/05 00:04:36;;;;;;;;;;;10.40;77.10;;;;;;5108844;28;19916;-69
2023/11/05 00:07:02;;;;;;;;;;;10.40;77.00;;;;;;5121675;28;19927;-70
2023/11/05 00:09:28;;;;;;;;;;;10.40;77.00;;;;;;5100616;28;19923;-68
2023/11/05 00:11:54;;;;;;;;;;;10.50;77.20;;;;;;5099438;28;19959;-68
2023/11/05 00:14:20;;;;;;;;;;;10.50;77.20;;;;;;5100814;28;20011;-68
2023/11/05 00:16:46;;;;;;;;;;;10.50;77.20;;;;;;5102834;28;19928;-69
2023/11/05 00:19:12;;;;;;;;;;;10.60;77.20;;;;;;5091182;28;20361;-68
2023/11/05 00:21:38;;;;;;;;;;;10.60;77.20;;;;;;5091117;28;19949;-70
2023/11/05 00:24:04;;;;;;;;;;;10.60;77.20;;;;;;5091780;28;19935;-70
2023/11/05 00:26:30;;;;;;;;;;;10.60;76.60;;;;;;5092740;28;20277;-70
2023/11/05 00:28:56;;;;;;;;;;;10.70;77.20;;;;;;5092119;28;19998;-68
2023/11/05 00:31:22;;;;;;;;;;;10.70;77.20;;;;;;5112898;28;19919;-70
2023/11/05 00:33:48;;;;;;;;;;;10.70;77.10;;;;;;5104477;28;19962;-70
2023/11/05 00:36:14;;;;;;;;;;;10.80;77.80;;;;;;5096417;28;19924;-70
2023/11/05 00:38:39;;;;;;;;;;;10.80;76.90;;;;;;5095080;28;19922;-68
2023/11/05 00:41:05;;;;;;;;;;;10.80;76.90;;;;;;5094858;28;20023;-70
2023/11/05 00:43:31;;;;;;;;;;;10.90;77.10;;;;;;5095136;28;20349;-70
2023/11/05 00:45:57;;;;;;;;;;;10.90;77.10;;;;;;5095597;28;19989;-69
2023/11/05 00:48:23;;;;;;;;;;;10.90;77.10;;;;;;5103705;28;20379;-68
2023/11/05 00:50:49;;;;;;;;;;;10.90;77.10;;;;;;5094483;28;19973;-70
2023/11/05 00:53:15;;;;;;;;;;;11.00;77.10;;;;;;5095596;28;19999;-69
2023/11/05 00:55:41;;;;;;;;;;;11.00;77.00;;;;;;5096332;28;20412;-70
2023/11/05 00:58:07;;;;;;;;;;;11.00;77.80;;;;;;5107500;28;20322;-70
2023/11/05 01:00:32;;;;;;;;;;;11.00;77.00;;;;;;5114602;28;19919;-70
2023/11/05 01:02:58;;;;;;;;;;;11.00;77.10;;;;;;5115303;28;19954;-70
2023/11/05 01:05:24;;;;;;;;;;;10.90;77.40;;;;;;5116433;27;19961;-70
2023/11/05 01:07:50;;;;;;;;;;;10.90;77.70;;;;;;5114956;28;19919;-69
2023/11/05 01:10:16;;;;;;;;;;;10.80;77.80;;;;;;5115565;27;19922;-68
2023/11/05 01:12:42;;;;;;;;;;;10.80;77.90;;;;;;5115419;28;19920;-70
2023/11/05 01:15:08;;;;;;;;;;;10.80;77.70;;;;;;5116356;27;19915;-69
2023/11/05 01:17:35;;;;;;;;;;;10.80;77.20;;;;;;5115224;28;19916;-68
2023/11/05 01:20:01;;;;;;;;;;;10.80;77.80;;;;;;5114934;28;20344;-68
2023/11/05 01:22:27;;;;;;;;;;;10.90;77.70;;;;;;5115993;28;20002;-69
2023/11/05 01:24:52;;;;;;;;;;;10.90;77.70;;;;;;5116183;28;19918;-69
2023/11/05 01:27:18;;;;;;;;;;;10.90;77.70;;;;;;5116361;28;19920;-70
2023/11/05 01:29:45;;;;;;;;;;;10.90;77.70;;;;;;5116141;28;20291;-70
2023/11/05 01:32:10;;;;;;;;;;;11.00;77.50;;;;;;5114212;28;19973;-68
2023/11/05 01:34:37;;;;;;;;;;;11.00;77.40;;;;;;5097764;28;20010;-70
2023/11/05 01:37:02;;;;;;;;;;;11.00;77.40;;;;;;5114762;28;19920;-69
2023/11/05 01:39:29;;;;;;;;;;;11.10;77.50;;;;;;5115646;28;19976;-70
2023/11/05 01:41:55;;;;;;;;;;;11.10;77.50;;;;;;5096209;28;20336;-68
2023/11/05 01:44:20;;;;;;;;;;;11.10;77.30;;;;;;5115829;28;19918;-70
2023/11/05 01:46:47;;;;;;;;;;;11.20;77.20;;;;;;5115810;28;20407;-70
2023/11/05 01:49:13;;;;;;;;;;;11.20;77.10;;;;;;5115521;28;19912;-69
2023/11/05 01:51:40;;;;;;;;;;;11.20;77.10;;;;;;5114845;28;19927;-70
2023/11/05 01:54:08;;;;;;;;;;;11.20;77.10;;;;;;5114338;28;19923;-70
2023/11/05 01:56:35;;;;;;;;;;;11.30;77.10;;;;;;5097405;28;19920;-69
2023/11/05 01:59:03;;;;;;;;;;;11.30;77.10;;;;;;5114311;28;20372;-70
2023/11/05 02:01:29;;;;;;;;;;;11.30;77.20;;;;;;5113423;28;19969;-70
2023/11/05 02:03:55;;;;;;;;;;;11.30;76.60;;;;;;5114197;28;20364;-69
2023/11/05 02:06:20;;;;;;;;;;;11.40;78.00;;;;;;5097060;28;19919;-68
2023/11/05 02:08:47;;;;;;;;;;;11.40;77.20;;;;;;5114995;28;19918;-68
2023/11/05 02:11:13;;;;;;;;;;;11.40;77.00;;;;;;5113282;28;19927;-68
2023/11/05 02:13:57;;;;;;;;;;;11.40;77.10;;;;;;5115246;28;19990;-69
2023/11/05 02:16:25;;;;;;;;;;;11.50;77.10;;;;;;5115333;28;19927;-68
2023/11/05 02:18:51;;;;;;;;;;;11.50;77.10;;;;;;5113888;28;19981;-68
2023/11/05 02:21:55;;;;;;;;;;;11.50;77.30;;;;;;5113066;28;20002;-69
2023/11/05 02:24:23;;;;;;;;;;;11.50;77.10;;;;;;5115048;28;19927;-68
2023/11/05 02:27:07;;;;;;;;;;;11.50;77.20;;;;;;5113879;28;19967;-69
2023/11/05 02:29:33;;;;;;;;;;;11.60;77.30;;;;;;5114828;27;19923;-69
2023/11/05 02:31:59;;;;;;;;;;;11.50;77.50;;;;;;5114673;28;19919;-68
2023/11/05 02:34:25;;;;;;;;;;;11.60;77.60;;;;;;5114786;28;20440;-68
2023/11/05 02:36:51;;;;;;;;;;;11.60;77.70;;;;;;5096480;28;20291;-68
2023/11/05 02:39:17;;;;;;;;;;;11.50;77.80;;;;;;5113235;28;19916;-69
2023/11/05 02:41:42;;;;;;;;;;;11.50;77.90;;;;;;5114263;28;19998;-68
2023/11/05 02:44:08;;;;;;;;;;;11.50;78.10;;;;;;5114577;28;19950;-69
2023/11/05 02:46:34;;;;;;;;;;;11.40;78.10;;;;;;5114704;28;19915;-69
2023/11/05 02:49:00;;;;;;;;;;;11.50;78.30;;;;;;5096105;28;20011;-68
2023/11/05 02:51:26;;;;;;;;;;;11.40;78.30;;;;;;5113932;28;19916;-70
2023/11/05 02:53:52;;;;;;;;;;;11.40;78.40;;;;;;5114242;28;19915;-69
2023/11/05 02:56:18;;;;;;;;;;;11.40;78.50;;;;;;5114434;28;19923;-69
2023/11/05 02:58:44;;;;;;;;;;;11.50;78.50;;;;;;5114322;28;19999;-70
2023/11/05 03:01:10;;;;;;;;;;;11.50;78.30;;;;;;5113699;28;20337;-68
2023/11/05 03:03:37;;;;;;;;;;;11.50;78.20;;;;;;5114275;28;19926;-68
2023/11/05 03:06:03;;;;;;;;;;;11.60;78.90;;;;;;5095908;28;20014;-68
2023/11/05 03:08:29;;;;;;;;;;;11.60;77.50;;;;;;5113934;28;19924;-69
2023/11/05 03:10:55;;;;;;;;;;;11.60;78.10;;;;;;5112214;28;20383;-68
2023/11/05 03:13:21;;;;;;;;;;;11.60;78.20;;;;;;5113992;28;19957;-68
2023/11/05 03:15:47;;;;;;;;;;;11.60;78.20;;;;;;5114026;28;20404;-68
2023/11/05 03:18:13;;;;;;;;;;;11.60;78.20;;;;;;5112699;28;20384;-68
2023/11/05 03:20:39;;;;;;;;;;;11.60;78.40;;;;;;5113286;28;19960;-70
2023/11/05 03:23:04;;;;;;;;;;;11.60;78.30;;;;;;5113761;28;19994;-68
2023/11/05 03:25:30;;;;;;;;;;;11.60;78.40;;;;;;5113697;28;19912;-70
2023/11/05 03:27:56;;;;;;;;;;;11.60;78.30;;;;;;5112453;28;19916;-68
2023/11/05 03:30:22;;;;;;;;;;;11.60;78.30;;;;;;5113039;28;20091;-68
2023/11/05 03:32:48;;;;;;;;;;;11.60;78.30;;;;;;5112337;28;19961;-68
2023/11/05 03:35:14;;;;;;;;;;;11.60;78.40;;;;;;5112366;28;20002;-70
2023/11/05 03:37:40;;;;;;;;;;;11.60;78.40;;;;;;5112674;28;19922;-67
2023/11/05 03:40:06;;;;;;;;;;;11.70;78.40;;;;;;5113061;28;20002;-70
2023/11/05 03:42:32;;;;;;;;;;;11.70;78.30;;;;;;5112460;28;19919;-70
2023/11/05 03:44:58;;;;;;;;;;;11.70;78.40;;;;;;5113698;28;20428;-69
2023/11/05 03:47:23;;;;;;;;;;;11.70;78.40;;;;;;5113798;28;20003;-69
2023/11/05 03:49:49;;;;;;;;;;;11.80;78.40;;;;;;5113309;28;19924;-70
2023/11/05 03:52:15;;;;;;;;;;;11.80;78.40;;;;;;5111593;28;20336;-68
2023/11/05 03:54:42;;;;;;;;;;;11.70;78.40;;;;;;5113686;28;20429;-69
2023/11/05 03:57:08;;;;;;;;;;;11.80;78.50;;;;;;5112171;28;19927;-70
2023/11/05 03:59:34;;;;;;;;;;;11.80;78.50;;;;;;5113368;28;19955;-70
2023/11/05 04:01:59;;;;;;;;;;;11.80;78.50;;;;;;5111504;28;19924;-70
2023/11/05 04:04:26;;;;;;;;;;;11.80;78.70;;;;;;5113516;28;19915;-70
2023/11/05 04:06:52;;;;;;;;;;;11.80;78.70;;;;;;5118930;28;19939;-70
2023/11/05 04:09:18;;;;;;;;;;;11.80;78.80;;;;;;5118790;28;19920;-68
2023/11/05 04:11:44;;;;;;;;;;;11.80;78.70;;;;;;5119814;27;19961;-70
2023/11/05 04:14:10;;;;;;;;;;;11.80;78.80;;;;;;5118760;28;20006;-68
2023/11/05 04:16:36;;;;;;;;;;;11.90;78.90;;;;;;5120304;27;20325;-68
2023/11/05 04:19:02;;;;;;;;;;;11.90;78.90;;;;;;5120084;27;20009;-68
2023/11/05 04:21:28;;;;;;;;;;;11.90;79.10;;;;;;5118036;27;19916;-70
2023/11/05 04:23:53;;;;;;;;;;;12.00;79.10;;;;;;5120079;27;20383;-70
2023/11/05 04:26:19;;;;;;;;;;;12.00;79.00;;;;;;5118757;28;20347;-68
2023/11/05 04:28:46;;;;;;;;;;;12.10;79.20;;;;;;5120006;28;19920;-70
2023/11/05 04:31:12;;;;;;;;;;;12.10;79.40;;;;;;5100959;28;19923;-70
2023/11/05 04:33:38;;;;;;;;;;;12.30;80.20;;;;;;5119954;28;19919;-70
2023/11/05 04:36:04;;;;;;;;;;;12.30;80.70;;;;;;5118711;28;19981;-68
2023/11/05 04:38:30;;;;;;;;;;;12.40;80.40;;;;;;5118452;28;19938;-68
2023/11/05 04:40:56;;;;;;;;;;;12.40;80.40;;;;;;5119205;27;19915;-70
2023/11/05 04:43:22;;;;;;;;;;;12.50;80.50;;;;;;5119662;27;19922;-70
2023/11/05 04:45:47;;;;;;;;;;;12.50;80.30;;;;;;5118454;27;20010;-70
2023/11/05 04:48:13;;;;;;;;;;;12.50;80.30;;;;;;5118290;28;19951;-68
2023/11/05 04:50:40;;;;;;;;;;;12.60;80.20;;;;;;5119110;27;20015;-68
2023/11/05 04:53:05;;;;;;;;;;;12.60;80.00;;;;;;5119521;27;19923;-68
2023/11/05 04:55:31;;;;;;;;;;;12.70;80.20;;;;;;5119683;27;20019;-70
2023/11/05 04:57:58;;;;;;;;;;;12.70;80.30;;;;;;5119585;27;20018;-69
2023/11/05 05:00:24;;;;;;;;;;;12.70;80.80;;;;;;5117865;27;19931;-68
2023/11/05 05:02:50;;;;;;;;;;;12.80;80.90;;;;;;5119660;27;19920;-70
2023/11/05 05:05:16;;;;;;;;;;;12.80;81.10;;;;;;5119536;28;19918;-68
2023/11/05 05:07:42;;;;;;;;;;;12.90;83.10;;;;;;5119783;27;19968;-70
2023/11/05 05:10:08;;;;;;;;;;;13.00;82.00;;;;;;5118930;27;19919;-69
2023/11/05 05:12:34;;;;;;;;;;;13.00;82.70;;;;;;5118455;28;20355;-70
2023/11/05 05:15:05;;;;;;;;;;;13.10;83.80;;;;;;5118191;28;19919;-69
2023/11/05 05:17:32;;;;;;;;;;;13.20;84.00;;;;;;5114436;28;20333;-69
2023/11/05 05:19:59;;;;;;;;;;;13.30;84.00;;;;;;5097968;28;19964;-70
2023/11/05 05:22:25;;;;;;;;;;;13.30;83.80;;;;;;5116057;27;19915;-69
2023/11/05 05:24:52;;;;;;;;;;;13.30;84.60;;;;;;5114903;28;19972;-69
2023/11/05 05:27:18;;;;;;;;;;;13.40;85.20;;;;;;5114612;28;19959;-70
2023/11/05 05:29:44;;;;;;;;;;;13.50;85.70;;;;;;5114800;28;20386;-69
2023/11/05 05:32:10;;;;;;;;;;;13.60;85.70;;;;;;5114161;28;20276;-68
2023/11/05 05:34:35;;;;;;;;;;;13.60;85.80;;;;;;5115906;28;19920;-69
2023/11/05 05:37:01;;;;;;;;;;;13.70;86.20;;;;;;5097659;28;20351;-69
2023/11/05 05:39:27;;;;;;;;;;;13.70;85.90;;;;;;5114648;28;19916;-68
2023/11/05 05:41:53;;;;;;;;;;;13.80;85.80;;;;;;5115557;28;19922;-68
2023/11/05 05:44:19;;;;;;;;;;;13.90;86.60;;;;;;5114716;28;19919;-70
2023/11/05 05:46:45;;;;;;;;;;;13.80;86.30;;;;;;5115816;28;19961;-70
2023/11/05 05:49:11;;;;;;;;;;;13.90;86.60;;;;;;5115612;28;19926;-68
2023/11/05 05:51:37;;;;;;;;;;;13.90;86.80;;;;;;5113839;28;20280;-70
2023/11/05 05:54:03;;;;;;;;;;;14.00;86.80;;;;;;5114355;28;20396;-68
2023/11/05 05:56:28;;;;;;;;;;;14.00;87.00;;;;;;5115531;28;20329;-69
2023/11/05 05:58:54;;;;;;;;;;;14.10;86.70;;;;;;5114329;28;19915;-69
2023/11/05 06:01:20;;;;;;;;;;;14.10;86.70;;;;;;5115047;28;20292;-70
2023/11/05 06:03:47;;;;;;;;;;;14.10;86.70;;;;;;5115670;28;19961;-70
2023/11/05 06:06:13;;;;;;;;;;;14.20;86.70;;;;;;5114141;28;19998;-70
2023/11/05 06:08:39;;;;;;;;;;;14.20;86.80;;;;;;5096860;28;19958;-68
2023/11/05 06:11:05;;;;;;;;;;;14.20;87.20;;;;;;5114685;28;19916;-68
2023/11/05 06:13:31;;;;;;;;;;;14.20;87.50;;;;;;5113980;28;20415;-70
2023/11/05 06:15:57;;;;;;;;;;;14.20;88.20;;;;;;5113777;28;20334;-69
2023/11/05 06:18:23;;;;;;;;;;;14.20;87.80;;;;;;5115103;28;19994;-68
2023/11/05 06:20:49;;;;;;;;;;;14.20;88.40;;;;;;5114522;27;20011;-68
2023/11/05 06:23:16;;;;;;;;;;;14.10;89.70;;;;;;5115040;28;19916;-69
2023/11/05 06:25:42;;;;;;;;;;;14.10;90.70;;;;;;5113702;28;20301;-69
2023/11/05 06:28:08;;;;;;;;;;;14.00;91.60;;;;;;5113430;28;19922;-69
2023/11/05 06:30:33;;;;;;;;;;;14.00;91.70;;;;;;5112905;28;20322;-69
2023/11/05 06:32:59;;;;;;;;;;;14.10;92.50;;;;;;5114781;28;20005;-69
2023/11/05 06:35:25;;;;;;;;;;;14.10;92.50;;;;;;5114678;28;20345;-70
2023/11/05 06:37:51;;;;;;;;;;;14.10;92.50;;;;;;5114609;28;20352;-70
2023/11/05 06:40:17;;;;;;;;;;;14.10;93.20;;;;;;5112720;28;20423;-70
2023/11/05 06:42:43;;;;;;;;;;;14.10;92.70;;;;;;5096320;28;19950;-70
2023/11/05 06:45:09;;;;;;;;;;;14.10;92.90;;;;;;5113583;28;19959;-69
2023/11/05 06:47:35;;;;;;;;;;;14.20;92.20;;;;;;5115141;28;19911;-69
2023/11/05 06:50:01;;;;;;;;;;;14.20;92.90;;;;;;5113123;28;19926;-70
2023/11/05 06:52:27;;;;;;;;;;;14.30;92.10;;;;;;5112532;28;20361;-69
2023/11/05 06:54:53;;;;;;;;;;;14.20;93.50;;;;;;5113136;28;19922;-69
2023/11/05 06:57:19;;;;;;;;;;;14.10;94.90;;;;;;5113210;28;20007;-70
2023/11/05 06:59:44;;;;;;;;;;;14.10;95.30;;;;;;5113135;28;19912;-70
2023/11/05 07:02:10;;;;;;;;;;;14.10;95.90;;;;;;5112576;28;19920;-68
2023/11/05 07:04:37;;;;;;;;;;;14.10;95.90;;;;;;5113031;28;19911;-70
2023/11/05 07:07:04;;;;;;;;;;;14.10;96.20;;;;;;5112637;28;20039;-69
2023/11/05 07:09:30;;;;;;;;;;;14.20;96.40;;;;;;5113880;28;19911;-70
2023/11/05 07:11:56;;;;;;;;;;;14.20;96.20;;;;;;5112373;28;20265;-70
2023/11/05 07:14:22;;;;;;;;;;;14.20;96.10;;;;;;5112892;28;19912;-69
2023/11/05 07:16:48;;;;;;;;;;;14.30;96.00;;;;;;5114105;28;19920;-69
2023/11/05 07:19:14;;;;;;;;;;;14.30;95.80;;;;;;5112551;28;20330;-69
2023/11/05 07:21:40;;;;;;;;;;;14.40;95.30;;;;;;5112168;28;19920;-69
2023/11/05 07:24:06;;;;;;;;;;;14.40;94.90;;;;;;5112790;28;20403;-69
2023/11/05 07:26:32;;;;;;;;;;;14.50;94.00;;;;;;5112433;28;19976;-70
2023/11/05 07:28:59;;;;;;;;;;;14.60;94.30;;;;;;5112677;28;19915;-69
2023/11/05 07:31:25;;;;;;;;;;;14.70;94.20;;;;;;5111846;28;19916;-70
2023/11/05 07:33:51;;;;;;;;;;;14.70;94.00;;;;;;5113768;28;19915;-68
2023/11/05 07:36:16;;;;;;;;;;;14.70;93.80;;;;;;5113534;28;20291;-69
2023/11/05 07:38:43;;;;;;;;;;;14.70;93.80;;;;;;5112109;28;19959;-70
2023/11/05 07:41:08;;;;;;;;;;;14.70;93.80;;;;;;5111261;28;19915;-69
2023/11/05 07:43:34;;;;;;;;;;;14.80;93.40;;;;;;5112648;28;20025;-70
2023/11/05 07:46:01;;;;;;;;;;;14.80;93.30;;;;;;5095186;28;20014;-69
2023/11/05 07:48:26;;;;;;;;;;;14.80;93.10;;;;;;5113461;28;19915;-70
2023/11/05 07:50:52;;;;;;;;;;;14.90;93.20;;;;;;5111602;28;20268;-70
2023/11/05 07:53:20;;;;;;;;;;;14.90;93.10;;;;;;5111984;28;19926;-70
2023/11/05 07:55:46;;;;;;;;;;;14.90;93.10;;;;;;5113351;28;20010;-69
2023/11/05 07:58:12;;;;;;;;;;;14.90;93.10;;;;;;5112156;28;19916;-69
2023/11/05 08:00:40;;;;;;;;;;;14.90;93.00;;;;;;5111472;28;19970;-70
2023/11/05 08:03:06;;;;;;;;;;;14.90;93.80;;;;;;5113750;28;20022;-70
2023/11/05 08:05:34;;;;;;;;;;;14.90;92.90;;;;;;5112063;28;19911;-69
2023/11/05 08:08:00;;;;;;;;;;;14.90;92.90;;;;;;5113159;28;19920;-69
2023/11/05 08:10:27;;;;;;;;;;;14.90;92.20;;;;;;5112391;28;19916;-70
2023/11/05 08:12:52;;;;;;;;;;;15.00;92.30;;;;;;5113275;28;19923;-70
2023/11/05 08:15:20;;;;;;;;;;;15.20;92.00;;;;;;5113190;28;20002;-70
2023/11/05 08:17:47;;;;;;;;;;;15.30;91.50;;;;;;5111906;28;20278;-70
2023/11/05 08:20:14;;;;;;;;;;;15.30;90.60;;;;;;5112423;28;19965;-70
2023/11/05 08:25:27;;;;;;;;;;;15.40;90.80;;;;;;5113306;28;19916;-69
2023/11/05 08:27:54;;;;;;;;;;;15.60;91.10;;;;;;5094804;28;20007;-69
2023/11/05 08:30:23;;;;;;;;;;;16.50;89.10;;;;;;5111392;28;19981;-69
2023/11/05 08:32:51;;;;;;;;;;;18.80;77.30;;;;;;5111915;28;19927;-70
2023/11/05 08:35:18;;;;;;;;;;;21.10;68.70;;;;;;5111706;28;19912;-70
2023/11/05 08:38:03;;;;;;;;;;;21.40;65.80;;;;;;5111896;28;20758;-70
2023/11/05 08:40:29;;;;;;;;;;;20.40;70.00;;;;;;5112765;28;19920;-69
2023/11/05 08:42:55;;;;;;;;;;;19.60;74.00;;;;;;5111784;28;19981;-70
2023/11/05 08:45:21;;;;;;;;;;;19.20;77.10;;;;;;5112694;28;19922;-70
2023/11/05 08:47:47;;;;;;;;;;;18.90;78.30;;;;;;5094789;28;19926;-69
2023/11/05 08:50:13;;;;;;;;;;;18.80;78.50;;;;;;5110784;28;19991;-69
2023/11/05 08:52:39;;;;;;;;;;;18.80;79.20;;;;;;5098271;28;20018;-69
2023/11/05 08:55:07;;;;;;;;;;;18.70;79.60;;;;;;5116614;28;20375;-69
2023/11/05 08:57:33;;;;;;;;;;;18.50;79.20;;;;;;5115685;28;19916;-69
2023/11/05 08:59:59;;;;;;;;;;;18.60;77.90;;;;;;5116715;28;19963;-69
2023/11/05 09:02:27;;;;;;;;;;;18.50;77.30;;;;;;5114884;28;19970;-69
2023/11/05 09:04:53;;;;;;;;;;;18.60;77.40;;;;;;5115208;28;19958;-70
2023/11/05 09:07:18;;;;;;;;;;;18.70;77.50;;;;;;5115155;28;19924;-68
2023/11/05 09:09:45;;;;;;;;;;;18.60;77.80;;;;;;5107877;28;19998;-68
2023/11/05 09:12:13;;;;;;;;;;;18.60;77.40;;;;;;5095628;28;19920;-68
2023/11/05 09:14:40;;;;;;;;;;;18.40;76.70;;;;;;5102059;28;19919;-69
2023/11/05 09:17:08;;;;;;;;;;;18.30;77.70;;;;;;5077807;28;20193;-68
2023/11/05 09:19:34;;;;;;;;;;;18.30;76.00;;;;;;5094709;28;19919;-70
2023/11/05 09:22:01;;;;;;;;;;;18.20;77.10;;;;;;5094259;28;19927;-70
2023/11/05 09:27:11;;;;;;;;;;;18.20;77.20;;;;;;5101058;28;19927;-68
2023/11/05 09:29:36;;;;;;;;;;;18.20;75.50;;;;;;5094539;28;19956;-70
2023/11/05 09:32:02;;;;;;;;;;;18.20;73.60;;;;;;5095688;28;20011;-70
2023/11/05 09:34:28;;;;;;;;;;;18.20;73.00;;;;;;5095435;28;19919;-70
2023/11/05 09:36:55;;;;;;;;;;;18.20;72.60;;;;;;5097550;28;19920;-70
2023/11/05 09:39:20;;;;;;;;;;;18.20;72.40;;;;;;5096957;28;20225;-70
2023/11/05 09:41:46;;;;;;;;;;;18.30;71.60;;;;;;5115361;28;20376;-70
2023/11/05 09:44:13;;;;;;;;;;;18.30;69.60;;;;;;5114592;28;20014;-69
2023/11/05 09:46:40;;;;;;;;;;;18.30;67.10;;;;;;5115683;28;19916;-69
2023/11/05 09:49:06;;;;;;;;;;;18.40;63.20;;;;;;5102594;28;19923;-69
2023/11/05 09:51:32;;;;;;;;;;;18.50;63.50;;;;;;5088180;28;19943;-69
2023/11/05 09:53:58;;;;;;;;;;;18.50;58.40;;;;;;5115773;28;19961;-69
2023/11/05 09:56:25;;;;;;;;;;;18.70;60.20;;;;;;5107985;28;20316;-70
2023/11/05 09:58:51;;;;;;;;;;;18.80;60.40;;;;;;5103681;28;19912;-70
2023/11/05 10:01:17;;;;;;;;;;;18.80;60.20;;;;;;5079415;28;20400;-69
2023/11/05 10:03:43;;;;;;;;;;;18.90;57.60;;;;;;5114656;28;19911;-70
2023/11/05 10:06:15;;;;;;;;;;;19.00;54.30;;;;;;5102051;28;19966;-70
2023/11/05 10:08:41;;;;;;;;;;;19.00;49.80;;;;;;5093410;28;20352;-70
2023/11/05 10:11:08;;;;;;;;;;;18.90;48.90;;;;;;5092912;28;19920;-69
2023/11/05 10:13:35;;;;;;;;;;;18.90;52.00;;;;;;5101874;28;19956;-70
2023/11/05 10:16:03;;;;;;;;;;;19.00;49.00;;;;;;5114091;28;19923;-69
2023/11/05 10:18:33;;;;;;;;;;;19.00;50.80;;;;;;5113930;28;20371;-69
2023/11/05 10:20:59;;;;;;;;;;;19.10;49.60;;;;;;5113211;28;20289;-70
2023/11/05 10:23:26;;;;;;;;;;;19.20;49.60;;;;;;5099546;28;19919;-70
2023/11/05 10:25:53;;;;;;;;;;;19.20;48.10;;;;;;5093331;28;19927;-70
2023/11/05 10:28:20;;;;;;;;;;;19.30;47.60;;;;;;5094472;28;19969;-70
2023/11/05 10:30:49;;;;;;;;;;;19.30;45.40;;;;;;5101578;28;19924;-69
2023/11/05 10:33:15;;;;;;;;;;;19.40;46.40;;;;;;5113630;28;19912;-69
2023/11/05 10:35:41;;;;;;;;;;;19.50;49.10;;;;;;5096445;28;20013;-68
2023/11/05 10:38:13;;;;;;;;;;;19.70;47.60;;;;;;5113392;28;19912;-69
2023/11/05 10:40:39;;;;;;;;;;;19.90;44.60;;;;;;5098254;28;20307;-69
2023/11/05 10:43:06;;;;;;;;;;;20.30;43.10;;;;;;5093878;28;19924;-69
2023/11/05 10:45:33;;;;;;;;;;;20.40;43.50;;;;;;5094025;28;19912;-70
2023/11/05 10:48:01;;;;;;;;;;;20.60;44.90;;;;;;5102830;28;19920;-70
2023/11/05 10:50:28;;;;;;;;;;;20.80;46.30;;;;;;5108712;28;19916;-69
2023/11/05 10:52:58;;;;;;;;;;;20.90;46.10;;;;;;5095638;28;20380;-68
2023/11/05 10:55:51;;;;;;;;;;;21.20;47.60;;;;;;5112977;28;19963;-69
2023/11/05 10:58:23;;;;;;;;;;;21.50;46.70;;;;;;5099298;28;19920;-70
2023/11/05 11:00:57;;;;;;;;;;;21.50;41.40;;;;;;5092264;28;20281;-69
2023/11/05 11:03:25;;;;;;;;;;;21.40;44.40;;;;;;5107000;28;19923;-70
2023/11/05 11:05:53;;;;;;;;;;;21.40;41.80;;;;;;5108762;28;19951;-70
2023/11/05 11:08:38;;;;;;;;;;;21.80;41.00;;;;;;5092269;28;19927;-70
2023/11/05 11:11:23;;;;;;;;;;;22.00;37.70;;;;;;5106256;28;19915;-70
2023/11/05 11:13:52;;;;;;;;;;;21.80;39.30;;;;;;5113682;28;19916;-69
2023/11/05 11:16:37;;;;;;;;;;;21.60;38.00;;;;;;5113663;28;20324;-69
2023/11/05 11:19:25;;;;;;;;;;;21.20;40.00;;;;;;5112711;28;20401;-70
2023/11/05 11:21:57;;;;;;;;;;;21.20;40.80;;;;;;5103876;28;19926;-69
2023/11/05 11:24:30;;;;;;;;;;;21.40;39.90;;;;;;5096205;28;19947;-70
2023/11/05 11:27:04;;;;;;;;;;;21.30;38.60;;;;;;5092119;28;20326;-70
2023/11/05 11:29:49;;;;;;;;;;;21.10;38.60;;;;;;5092023;28;19922;-69
2023/11/05 11:32:18;;;;;;;;;;;21.10;38.60;;;;;;5074606;28;19920;-69
2023/11/05 11:34:44;;;;;;;;;;;21.00;38.50;;;;;;5091651;28;19957;-69
2023/11/05 11:37:13;;;;;;;;;;;21.10;38.50;;;;;;5093345;28;20296;-69
2023/11/05 11:39:40;;;;;;;;;;;21.00;38.60;;;;;;5110743;28;19962;-70
2023/11/05 11:42:06;;;;;;;;;;;20.80;38.60;;;;;;5098852;28;19920;-69
2023/11/05 11:44:32;;;;;;;;;;;20.90;38.70;;;;;;5112296;28;20044;-70
2023/11/05 11:47:00;;;;;;;;;;;20.90;37.40;;;;;;5112237;28;19951;-70
2023/11/05 11:52:12;;;;;;;;;;;20.90;38.80;;;;;;5094109;28;19923;-70
2023/11/05 11:54:38;;;;;;;;;;;20.60;37.60;;;;;;5105198;28;20010;-70
2023/11/05 11:57:04;;;;;;;;;;;20.80;38.50;;;;;;5112723;28;19973;-69
2023/11/05 11:59:31;;;;;;;;;;;21.00;36.30;;;;;;5097303;28;20292;-69
2023/11/05 12:01:59;;;;;;;;;;;21.30;38.80;;;;;;5092366;28;19916;-69
2023/11/05 12:04:25;;;;;;;;;;;21.20;37.00;;;;;;5091577;28;20161;-69
2023/11/05 12:06:51;;;;;;;;;;;21.00;38.00;;;;;;5092864;28;19920;-70
2023/11/05 12:09:36;;;;;;;;;;;21.10;35.60;;;;;;5092494;28;20436;-70
2023/11/05 12:12:03;;;;;;;;;;;21.10;35.00;;;;;;5095437;28;19920;-69
2023/11/05 12:14:29;;;;;;;;;;;21.00;35.60;;;;;;5111597;28;19916;-70
2023/11/05 12:16:55;;;;;;;;;;;21.10;36.40;;;;;;5112965;28;20334;-70
2023/11/05 12:19:21;;;;;;;;;;;21.10;36.50;;;;;;5112783;28;19912;-70
2023/11/05 12:21:49;;;;;;;;;;;21.00;38.90;;;;;;5111122;28;19920;-70
2023/11/05 12:24:15;;;;;;;;;;;21.00;38.00;;;;;;5111319;28;19912;-69
2023/11/05 12:26:42;;;;;;;;;;;21.00;37.70;;;;;;5113998;28;19924;-70
2023/11/05 12:29:27;;;;;;;;;;;21.20;37.80;;;;;;5111441;28;19942;-70
2023/11/05 12:31:53;;;;;;;;;;;22.30;34.40;;;;;;5096273;28;20323;-70
2023/11/05 12:34:18;;;;;;;;;;;22.80;33.00;;;;;;5094818;28;20018;-69
2023/11/05 12:36:44;;;;;;;;;;;23.20;32.20;;;;;;5095701;28;19924;-70
2023/11/05 12:39:10;;;;;;;;;;;23.30;33.40;;;;;;5096249;28;20010;-70
2023/11/05 12:41:36;;;;;;;;;;;23.40;32.60;;;;;;5094652;28;19920;-69
2023/11/05 12:44:02;;;;;;;;;;;22.50;32.10;;;;;;5095322;28;19958;-69
2023/11/05 12:46:29;;;;;;;;;;;23.20;30.40;;;;;;5096765;28;19931;-69
2023/11/05 12:48:55;;;;;;;;;;;23.10;30.00;;;;;;5108048;28;19916;-69
2023/11/05 12:51:22;;;;;;;;;;;22.30;32.30;;;;;;5114559;28;20516;-69
2023/11/05 12:53:49;;;;;;;;;;;22.10;32.10;;;;;;5114771;28;20310;-70
2023/11/05 12:56:16;;;;;;;;;;;22.60;31.80;;;;;;5115342;28;19926;-69
2023/11/05 12:58:42;;;;;;;;;;;22.70;31.90;;;;;;5115422;28;20010;-70
2023/11/05 13:01:12;;;;;;;;;;;22.60;31.70;;;;;;5114662;28;19923;-69
2023/11/05 13:03:38;;;;;;;;;;;23.00;32.00;;;;;;5108254;28;19966;-69
2023/11/05 13:06:08;;;;;;;;;;;24.40;29.80;;;;;;5096318;28;20297;-70
2023/11/05 13:08:34;;;;;;;;;;;26.00;29.10;;;;;;5111267;28;19912;-69
2023/11/05 13:11:04;;;;;;;;;;;27.60;27.50;;;;;;5111357;28;19974;-70
2023/11/05 13:13:30;;;;;;;;;;;29.40;23.80;;;;;;5094742;28;19922;-70
2023/11/05 13:15:56;;;;;;;;;;;30.50;23.60;;;;;;5094609;28;19919;-70
2023/11/05 13:18:24;;;;;;;;;;;31.50;22.40;;;;;;5111463;28;20289;-70
2023/11/05 13:20:50;;;;;;;;;;;31.90;20.20;;;;;;5094697;28;19951;-70
2023/11/05 13:23:16;;;;;;;;;;;31.80;20.00;;;;;;5111458;28;20277;-70
2023/11/05 13:25:42;;;;;;;;;;;31.60;20.80;;;;;;5095730;28;20010;-71
2023/11/05 13:28:08;;;;;;;;;;;32.60;21.00;;;;;;5111452;28;20471;-69
2023/11/05 13:30:34;;;;;;;;;;;32.50;19.30;;;;;;5098184;28;19927;-69
2023/11/05 13:33:00;;;;;;;;;;;32.30;20.40;;;;;;5114920;28;19969;-70
2023/11/05 13:35:27;;;;;;;;;;;32.70;20.50;;;;;;5107575;28;19915;-69
2023/11/05 13:37:53;;;;;;;;;;;31.80;20.10;;;;;;5104301;28;19923;-67
2023/11/05 13:40:22;;;;;;;;;;;31.30;19.90;;;;;;5115269;28;20341;-69
2023/11/05 13:42:49;;;;;;;;;;;30.80;21.60;;;;;;5114661;28;19919;-70
2023/11/05 13:45:14;;;;;;;;;;;30.90;21.30;;;;;;5114305;28;20363;-70
2023/11/05 13:47:41;;;;;;;;;;;30.40;21.00;;;;;;5106403;28;19937;-67
2023/11/05 13:50:07;;;;;;;;;;;29.70;22.10;;;;;;5109186;28;19989;-68
2023/11/05 13:52:34;;;;;;;;;;;28.60;22.20;;;;;;5094116;28;19943;-68
2023/11/05 13:55:00;;;;;;;;;;;27.60;24.50;;;;;;5088266;28;19923;-68
2023/11/05 13:57:26;;;;;;;;;;;26.50;26.60;;;;;;5108749;28;20015;-67
2023/11/05 13:59:52;;;;;;;;;;;25.60;27.90;;;;;;5093893;28;19954;-68
2023/11/05 14:02:18;;;;;;;;;;;24.90;28.80;;;;;;5093369;28;19932;-68
2023/11/05 14:04:44;;;;;;;;;;;24.30;29.40;;;;;;5077867;28;20014;-67
2023/11/05 14:07:11;;;;;;;;;;;23.90;30.80;;;;;;5093520;28;20006;-68
2023/11/05 14:09:37;;;;;;;;;;;23.40;30.50;;;;;;5093279;28;19912;-67
2023/11/05 14:12:03;;;;;;;;;;;22.90;32.30;;;;;;5104455;28;20272;-68
2023/11/05 14:14:29;;;;;;;;;;;22.70;32.80;;;;;;5114437;28;20290;-68
2023/11/05 14:16:55;;;;;;;;;;;22.40;32.80;;;;;;5096754;28;19920;-67
2023/11/05 14:19:22;;;;;;;;;;;22.00;33.00;;;;;;5113921;28;19951;-67
2023/11/05 14:22:07;;;;;;;;;;;21.70;34.10;;;;;;5113372;28;20006;-67
2023/11/05 14:24:33;;;;;;;;;;;21.50;34.90;;;;;;5115148;27;20583;-68